Time;durP1;ratioP1;P1;durP2;ratioP2;P2;SDS_P1;SDS_P2;PMS_P1;PMS_P2;Temp;Humidity;BMP_temperature;BMP_pressure;BME280_temperature;BME280_humidity;BME280_pressure;Samples;Min_cycle;Max_cycle;Signal;HPM_P1;HPM_P2
2022/02/06 00:00:41;;;;;;;4.45;2.22;;;;;;;;;;6182183;22;20118;-82
2022/02/06 00:03:07;;;;;;;5.28;2.10;;;;;;;;;;6208707;22;20020;-83
2022/02/06 00:05:33;;;;;;;5.25;1.70;;;;;;;;;;6208295;23;20412;-82
2022/02/06 00:08:01;;;;;;;5.80;2.55;;;;;;;;;;6183489;22;20015;-83
2022/02/06 00:10:27;;;;;;;7.35;2.08;;;;;;;;;;6210545;22;20116;-82
2022/02/06 00:12:53;;;;;;;4.00;2.08;;;;;;;;;;6185621;22;20020;-82
2022/02/06 00:15:20;;;;;;;3.15;1.67;;;;;;;;;;6184651;22;20095;-82
2022/02/06 00:17:48;;;;;;;5.22;2.03;;;;;;;;;;6185238;22;20335;-82
2022/02/06 00:20:15;;;;;;;7.15;2.38;;;;;;;;;;6184185;22;20239;-82
2022/02/06 00:22:45;;;;;;;8.55;2.72;;;;;;;;;;6209988;22;20432;-82
2022/02/06 00:25:25;;;;;;;3.47;1.75;;;;;;;;;;6185919;22;20117;-82
2022/02/06 00:30:30;;;;;;;5.38;2.22;;;;;;;;;;6209580;22;20048;-82
2022/02/06 00:33:11;;;;;;;4.88;1.90;;;;;;;;;;6187420;22;20315;-82
2022/02/06 00:38:32;;;;;;;4.97;1.88;;;;;;;;;;6209311;22;20032;-82
2022/02/06 00:43:25;;;;;;;4.32;1.70;;;;;;;;;;6209750;22;20099;-83
2022/02/06 00:45:50;;;;;;;6.10;1.60;;;;;;;;;;6183983;22;20024;-82
2022/02/06 00:48:21;;;;;;;5.13;1.42;;;;;;;;;;6183011;22;20059;-82
2022/02/06 00:50:52;;;;;;;3.63;1.73;;;;;;;;;;6184890;22;20187;-82
2022/02/06 00:53:18;;;;;;;4.55;1.85;;;;;;;;;;6211341;22;20027;-82
2022/02/06 00:55:46;;;;;;;5.32;1.85;;;;;;;;;;6209287;22;20012;-82
2022/02/06 00:58:12;;;;;;;5.20;1.52;;;;;;;;;;6208755;22;20020;-82
2022/02/06 01:00:38;;;;;;;5.07;2.20;;;;;;;;;;6183148;22;20382;-82
2022/02/06 01:03:04;;;;;;;2.75;1.73;;;;;;;;;;6184501;23;20020;-82
2022/02/06 01:05:30;;;;;;;4.55;1.80;;;;;;;;;;6183170;23;20433;-82
2022/02/06 01:07:56;;;;;;;5.47;1.73;;;;;;;;;;6184209;22;20070;-83
2022/02/06 01:10:24;;;;;;;4.20;1.33;;;;;;;;;;6208472;22;20358;-82
2022/02/06 01:12:57;;;;;;;6.35;1.83;;;;;;;;;;6183031;22;20069;-82
2022/02/06 01:15:28;;;;;;;1.70;1.10;;;;;;;;;;6183452;22;20107;-82
2022/02/06 01:18:00;;;;;;;5.22;1.52;;;;;;;;;;6184747;22;20088;-82
2022/02/06 01:20:34;;;;;;;4.20;1.58;;;;;;;;;;6184760;22;20158;-82
2022/02/06 01:23:20;;;;;;;3.55;1.60;;;;;;;;;;6184573;23;20208;-82
2022/02/06 01:26:03;;;;;;;3.42;1.45;;;;;;;;;;6186878;22;20020;-82
2022/02/06 01:28:44;;;;;;;3.50;1.75;;;;;;;;;;6211942;22;20414;-83
2022/02/06 01:31:29;;;;;;;4.53;1.50;;;;;;;;;;6208882;22;20024;-82
2022/02/06 01:33:59;;;;;;;6.38;1.55;;;;;;;;;;6187319;22;20408;-82
2022/02/06 01:36:48;;;;;;;3.53;1.55;;;;;;;;;;6209670;22;20058;-82
2022/02/06 01:39:39;;;;;;;4.78;1.20;;;;;;;;;;6236154;22;20024;-82
2022/02/06 01:42:08;;;;;;;3.53;1.40;;;;;;;;;;6187151;23;20028;-82
2022/02/06 01:44:49;;;;;;;3.20;1.10;;;;;;;;;;6182766;23;20074;-82
2022/02/06 02:01:13;;;;;;;4.10;1.50;;;;;;;;;;6213481;22;20026;-82
2022/02/06 02:03:50;;;;;;;4.45;1.88;;;;;;;;;;6233087;22;20111;-82
2022/02/06 02:11:55;;;;;;;3.00;1.15;;;;;;;;;;6207912;22;20024;-82
2022/02/06 02:14:33;;;;;;;7.25;1.35;;;;;;;;;;6208591;22;20024;-82
2022/02/06 02:17:18;;;;;;;3.67;1.60;;;;;;;;;;6193919;22;20398;-82
2022/02/06 02:20:12;;;;;;;6.63;1.20;;;;;;;;;;6215249;22;20018;-82
2022/02/06 02:23:00;;;;;;;3.50;1.42;;;;;;;;;;6192321;22;20051;-83
2022/02/06 02:28:52;;;;;;;5.00;1.80;;;;;;;;;;6215413;22;20027;-83
2022/02/06 02:31:28;;;;;;;7.13;1.48;;;;;;;;;;6216731;22;20020;-82
2022/02/06 02:44:58;;;;;;;3.25;1.33;;;;;;;;;;6215421;22;20108;-83
2022/02/06 02:47:24;;;;;;;2.28;0.80;;;;;;;;;;6189336;22;20028;-83
2022/02/06 02:49:59;;;;;;;4.72;1.77;;;;;;;;;;6210067;22;20020;-83
2022/02/06 02:52:49;;;;;;;4.95;1.40;;;;;;;;;;6188066;22;20102;-83
2022/02/06 02:58:26;;;;;;;2.95;1.10;;;;;;;;;;6211180;22;20017;-83
2022/02/06 03:03:42;;;;;;;3.53;1.73;;;;;;;;;;6084230;23;20022;-83
2022/02/06 03:06:09;;;;;;;5.30;1.23;;;;;;;;;;6178421;22;20630;-83
2022/02/06 03:08:36;;;;;;;4.90;1.55;;;;;;;;;;6185201;23;20016;-83
2022/02/06 03:11:07;;;;;;;3.42;1.30;;;;;;;;;;6183936;23;20008;-83
2022/02/06 03:13:50;;;;;;;2.10;1.00;;;;;;;;;;6186269;23;20043;-83
2022/02/06 03:16:21;;;;;;;7.38;1.63;;;;;;;;;;6213618;22;20027;-83
2022/02/06 03:21:29;;;;;;;6.95;1.30;;;;;;;;;;6213914;22;20024;-83
2022/02/06 03:24:06;;;;;;;4.45;1.30;;;;;;;;;;6186524;22;20020;-83
2022/02/06 03:26:31;;;;;;;1.83;0.93;;;;;;;;;;6188084;23;20549;-83
2022/02/06 03:28:57;;;;;;;5.80;1.50;;;;;;;;;;6211653;22;20020;-84
2022/02/06 03:31:23;;;;;;;2.88;1.67;;;;;;;;;;6185238;22;20095;-84
2022/02/06 03:33:50;;;;;;;6.38;1.67;;;;;;;;;;6185550;22;20024;-84
2022/02/06 03:36:17;;;;;;;6.50;1.48;;;;;;;;;;6186809;22;20020;-84
2022/02/06 03:38:42;;;;;;;4.32;1.08;;;;;;;;;;6210809;22;20022;-84
2022/02/06 03:41:11;;;;;;;4.85;1.55;;;;;;;;;;6211369;22;20417;-84
2022/02/06 03:43:51;;;;;;;4.60;2.33;;;;;;;;;;6186065;22;20074;-84
2022/02/06 03:46:32;;;;;;;6.10;1.55;;;;;;;;;;6190691;22;20031;-84
2022/02/06 03:51:33;;;;;;;5.22;1.50;;;;;;;;;;6213278;23;20031;-84
2022/02/06 03:53:59;;;;;;;5.85;2.10;;;;;;;;;;6189098;22;20012;-84
2022/02/06 03:56:26;;;;;;;5.13;1.65;;;;;;;;;;6188723;22;20028;-84
2022/02/06 03:58:52;;;;;;;6.07;2.40;;;;;;;;;;6213298;22;20020;-84
2022/02/06 04:01:18;;;;;;;4.05;1.85;;;;;;;;;;6213284;22;20036;-84
2022/02/06 04:03:44;;;;;;;6.03;1.65;;;;;;;;;;6187968;22;20040;-84
2022/02/06 04:06:09;;;;;;;6.88;1.80;;;;;;;;;;6187518;22;20394;-84
2022/02/06 04:08:38;;;;;;;4.25;2.20;;;;;;;;;;6187937;23;20039;-85
2022/02/06 04:11:07;;;;;;;5.82;2.17;;;;;;;;;;6188499;23;20020;-85
2022/02/06 04:13:37;;;;;;;7.47;2.25;;;;;;;;;;6214384;22;20091;-84
2022/02/06 04:16:05;;;;;;;5.72;2.03;;;;;;;;;;6215573;22;20319;-84
2022/02/06 04:20:59;;;;;;;5.03;1.85;;;;;;;;;;6214520;22;20453;-84
2022/02/06 04:23:25;;;;;;;7.20;2.60;;;;;;;;;;6188821;22;20039;-84
2022/02/06 04:25:51;;;;;;;7.10;2.10;;;;;;;;;;6188635;22;20066;-84
2022/02/06 04:28:17;;;;;;;6.22;2.50;;;;;;;;;;6213448;22;20151;-84
2022/02/06 04:30:43;;;;;;;8.25;2.40;;;;;;;;;;6187174;22;20016;-84
2022/02/06 04:33:09;;;;;;;8.52;2.40;;;;;;;;;;6213565;22;20045;-84
2022/02/06 04:35:38;;;;;;;6.88;2.75;;;;;;;;;;6188370;23;20012;-84
2022/02/06 04:38:30;;;;;;;10.57;2.55;;;;;;;;;;6189726;23;20223;-84
2022/02/06 04:46:52;;;;;;;4.60;2.58;;;;;;;;;;6217205;22;20071;-84
2022/02/06 04:54:51;;;;;;;6.53;2.72;;;;;;;;;;6215661;22;20350;-84
2022/02/06 05:14:15;;;;;;;5.93;2.63;;;;;;;;;;6217364;22;20508;-84
2022/02/06 05:19:49;;;;;;;4.70;2.33;;;;;;;;;;6217819;22;20066;-84
2022/02/06 05:25:19;;;;;;;7.80;3.00;;;;;;;;;;6216457;22;20519;-83
2022/02/06 05:30:19;;;;;;;3.83;2.05;;;;;;;;;;6214584;22;20020;-84
2022/02/06 05:35:19;;;;;;;7.15;2.50;;;;;;;;;;6215808;22;20028;-84
2022/02/06 05:37:45;;;;;;;3.60;2.33;;;;;;;;;;6212887;22;20289;-84
2022/02/06 05:40:11;;;;;;;5.28;2.60;;;;;;;;;;6187375;22;20098;-84
2022/02/06 05:42:37;;;;;;;9.82;2.70;;;;;;;;;;6186966;23;20432;-84
2022/02/06 05:45:04;;;;;;;5.47;3.05;;;;;;;;;;6214339;23;20682;-84
2022/02/06 05:47:29;;;;;;;3.53;2.40;;;;;;;;;;6187773;22;20501;-85
2022/02/06 05:49:56;;;;;;;3.13;2.35;;;;;;;;;;6188250;22;20143;-84
2022/02/06 05:52:23;;;;;;;4.63;2.17;;;;;;;;;;6188032;22;20486;-84
2022/02/06 05:54:49;;;;;;;4.50;2.42;;;;;;;;;;6186767;22;20075;-84
2022/02/06 05:57:15;;;;;;;4.90;2.38;;;;;;;;;;6188586;22;20047;-84
2022/02/06 05:59:40;;;;;;;5.30;2.22;;;;;;;;;;6188512;22;20107;-84
2022/02/06 06:02:06;;;;;;;4.80;2.00;;;;;;;;;;6188606;23;20070;-84
2022/02/06 06:04:32;;;;;;;7.47;2.30;;;;;;;;;;6188886;23;20020;-84
2022/02/06 06:06:58;;;;;;;9.18;2.20;;;;;;;;;;6188498;22;20017;-84
2022/02/06 06:09:24;;;;;;;4.63;1.88;;;;;;;;;;6188162;22;20024;-84
2022/02/06 06:11:49;;;;;;;3.47;1.85;;;;;;;;;;6186967;22;20016;-84
2022/02/06 06:14:15;;;;;;;5.15;1.92;;;;;;;;;;6212745;22;20078;-84
2022/02/06 06:16:41;;;;;;;7.80;1.98;;;;;;;;;;6187983;22;20011;-84
2022/02/06 06:19:07;;;;;;;4.50;1.92;;;;;;;;;;6188466;23;20017;-84
2022/02/06 06:21:38;;;;;;;4.57;1.95;;;;;;;;;;6211158;23;20095;-84
2022/02/06 06:24:04;;;;;;;4.43;1.75;;;;;;;;;;6190339;23;20038;-84
2022/02/06 06:26:35;;;;;;;5.00;1.90;;;;;;;;;;6213728;22;20016;-84
2022/02/06 06:29:01;;;;;;;5.55;2.03;;;;;;;;;;6189879;22;20492;-84
2022/02/06 06:31:28;;;;;;;3.10;1.52;;;;;;;;;;6189848;22;20028;-84
2022/02/06 06:33:53;;;;;;;3.58;1.75;;;;;;;;;;6189806;22;20071;-84
2022/02/06 06:36:21;;;;;;;3.95;1.70;;;;;;;;;;6215026;22;20111;-84
2022/02/06 06:38:49;;;;;;;3.78;1.65;;;;;;;;;;6188958;22;20023;-84
2022/02/06 06:41:15;;;;;;;3.55;1.70;;;;;;;;;;6189610;22;20027;-85
2022/02/06 06:43:40;;;;;;;9.13;2.10;;;;;;;;;;6189158;22;20020;-88
2022/02/06 06:46:06;;;;;;;2.28;1.55;;;;;;;;;;6191895;23;20054;-87
2022/02/06 06:48:32;;;;;;;3.97;1.45;;;;;;;;;;6189365;23;20024;-84
2022/02/06 06:50:57;;;;;;;5.95;1.63;;;;;;;;;;6213165;22;20089;-84
2022/02/06 06:53:23;;;;;;;3.80;1.80;;;;;;;;;;6189105;22;20070;-84
2022/02/06 06:55:56;;;;;;;3.92;1.70;;;;;;;;;;6189256;22;20024;-84
2022/02/06 06:58:34;;;;;;;4.18;1.65;;;;;;;;;;6189990;22;20016;-84
2022/02/06 07:03:26;;;;;;;5.28;1.65;;;;;;;;;;6215350;22;20024;-84
2022/02/06 07:05:52;;;;;;;4.20;2.00;;;;;;;;;;6188071;22;20016;-84
2022/02/06 07:08:19;;;;;;;5.38;2.05;;;;;;;;;;6190147;22;20016;-84
2022/02/06 07:10:46;;;;;;;4.20;1.60;;;;;;;;;;6190517;22;20018;-84
2022/02/06 07:13:13;;;;;;;4.47;1.42;;;;;;;;;;6190708;22;20020;-87
2022/02/06 07:15:39;;;;;;;5.53;1.55;;;;;;;;;;6190123;22;20579;-84
2022/02/06 07:18:05;;;;;;;4.95;1.73;;;;;;;;;;6187057;23;20361;-84
2022/02/06 07:20:33;;;;;;;3.50;1.35;;;;;;;;;;6213044;22;20020;-84
2022/02/06 07:22:58;;;;;;;2.22;1.35;;;;;;;;;;6188620;22;20042;-84
2022/02/06 07:25:26;;;;;;;4.45;1.30;;;;;;;;;;6187569;22;20485;-84
2022/02/06 07:27:52;;;;;;;1.85;1.58;;;;;;;;;;6187901;22;20027;-84
2022/02/06 07:30:18;;;;;;;3.58;1.40;;;;;;;;;;6186431;22;20399;-84
2022/02/06 07:32:44;;;;;;;3.47;1.40;;;;;;;;;;6185707;22;20043;-84
2022/02/06 07:35:11;;;;;;;4.03;1.00;;;;;;;;;;6185972;22;20020;-84
2022/02/06 07:37:38;;;;;;;1.65;0.88;;;;;;;;;;6186571;23;20043;-85
2022/02/06 07:40:05;;;;;;;1.92;1.00;;;;;;;;;;6183784;23;20407;-85
2022/02/06 07:42:30;;;;;;;1.27;1.10;;;;;;;;;;6184726;22;20115;-84
2022/02/06 07:44:56;;;;;;;3.75;0.80;;;;;;;;;;6185606;22;20127;-84
2022/02/06 07:47:24;;;;;;;2.50;0.93;;;;;;;;;;6185352;22;20055;-84
2022/02/06 07:49:52;;;;;;;2.28;1.02;;;;;;;;;;6187126;22;20016;-84
2022/02/06 07:52:22;;;;;;;2.75;1.10;;;;;;;;;;6185624;22;20111;-84
2022/02/06 07:54:49;;;;;;;2.58;0.98;;;;;;;;;;6186001;22;20019;-84
2022/02/06 07:57:15;;;;;;;6.68;1.30;;;;;;;;;;6185917;22;20031;-85
2022/02/06 07:59:41;;;;;;;1.50;0.75;;;;;;;;;;6211274;22;20074;-84
2022/02/06 08:02:07;;;;;;;2.38;0.88;;;;;;;;;;6186465;23;20051;-84
2022/02/06 08:04:34;;;;;;;1.85;1.05;;;;;;;;;;6186898;23;20043;-84
2022/02/06 08:07:01;;;;;;;1.23;0.82;;;;;;;;;;6187517;22;20020;-85
2022/02/06 08:09:51;;;;;;;1.48;0.98;;;;;;;;;;6185765;22;20484;-84
2022/02/06 08:12:24;;;;;;;2.60;0.90;;;;;;;;;;6211935;22;20236;-84
2022/02/06 08:14:52;;;;;;;2.05;0.80;;;;;;;;;;6187988;22;20028;-84
2022/02/06 08:17:19;;;;;;;1.70;0.82;;;;;;;;;;6185324;22;20031;-84
2022/02/06 08:19:46;;;;;;;2.15;1.00;;;;;;;;;;6187279;22;20487;-84
2022/02/06 08:22:11;;;;;;;2.55;0.98;;;;;;;;;;6187304;22;20028;-84
2022/02/06 08:24:37;;;;;;;2.67;0.95;;;;;;;;;;6187196;23;20111;-84
2022/02/06 08:27:03;;;;;;;2.60;0.80;;;;;;;;;;6187910;23;20024;-85
2022/02/06 08:29:29;;;;;;;4.97;1.08;;;;;;;;;;6211767;22;20047;-84
2022/02/06 08:31:55;;;;;;;2.22;1.20;;;;;;;;;;6188169;22;20102;-85
2022/02/06 08:34:20;;;;;;;5.47;1.40;;;;;;;;;;6214257;22;20047;-84
2022/02/06 08:36:46;;;;;;;3.00;1.15;;;;;;;;;;6217022;22;20027;-84
2022/02/06 08:39:12;;;;;;;3.92;1.30;;;;;;;;;;6214367;22;20079;-84
2022/02/06 08:41:37;;;;;;;2.97;0.93;;;;;;;;;;6190145;23;20494;-84
2022/02/06 08:44:04;;;;;;;4.10;1.35;;;;;;;;;;6189967;23;20051;-84
2022/02/06 08:46:30;;;;;;;3.08;1.00;;;;;;;;;;6215131;22;20485;-84
2022/02/06 08:48:55;;;;;;;2.80;0.77;;;;;;;;;;6189143;22;20020;-84
2022/02/06 08:51:22;;;;;;;5.85;1.02;;;;;;;;;;6188991;22;20028;-85
2022/02/06 08:53:48;;;;;;;3.35;1.23;;;;;;;;;;6213892;22;20027;-84
2022/02/06 08:56:14;;;;;;;2.58;1.20;;;;;;;;;;6188402;22;20016;-85
2022/02/06 08:58:39;;;;;;;3.05;1.00;;;;;;;;;;6188917;22;20046;-84
2022/02/06 09:01:05;;;;;;;3.03;1.17;;;;;;;;;;6190446;23;20031;-84
2022/02/06 09:03:31;;;;;;;2.17;1.45;;;;;;;;;;6189439;22;20020;-84
2022/02/06 09:05:57;;;;;;;4.05;1.55;;;;;;;;;;6188879;22;20048;-84
2022/02/06 09:08:23;;;;;;;1.25;0.82;;;;;;;;;;6194985;22;20012;-85
2022/02/06 09:10:49;;;;;;;3.17;1.45;;;;;;;;;;6192277;22;20020;-85
2022/02/06 09:13:15;;;;;;;1.80;0.95;;;;;;;;;;6191780;22;20024;-85
2022/02/06 09:15:41;;;;;;;2.20;0.90;;;;;;;;;;6216353;22;20067;-85
2022/02/06 09:18:07;;;;;;;3.20;1.30;;;;;;;;;;6189868;23;20021;-85
2022/02/06 09:20:33;;;;;;;2.63;1.00;;;;;;;;;;6190659;23;20107;-85
2022/02/06 09:23:02;;;;;;;6.35;1.05;;;;;;;;;;6190042;22;20051;-85
2022/02/06 09:25:31;;;;;;;3.47;1.23;;;;;;;;;;6213627;22;20050;-85
2022/02/06 09:27:57;;;;;;;2.58;0.90;;;;;;;;;;6191009;22;20515;-85
2022/02/06 09:30:26;;;;;;;1.85;1.10;;;;;;;;;;6189431;22;20398;-86
2022/02/06 09:35:18;;;;;;;1.58;0.88;;;;;;;;;;6218067;22;20016;-85
2022/02/06 09:37:44;;;;;;;5.32;1.15;;;;;;;;;;6191390;22;20450;-86
2022/02/06 09:40:14;;;;;;;4.38;1.30;;;;;;;;;;6192637;22;20031;-85
2022/02/06 09:42:42;;;;;;;5.70;2.30;;;;;;;;;;6192315;22;20313;-86
2022/02/06 09:45:09;;;;;;;1.20;1.10;;;;;;;;;;6218787;23;20020;-86
2022/02/06 09:47:35;;;;;;;2.38;1.02;;;;;;;;;;6192790;23;20028;-85
2022/02/06 09:50:01;;;;;;;3.25;1.10;;;;;;;;;;6192465;22;20031;-86
2022/02/06 09:52:28;;;;;;;2.45;0.90;;;;;;;;;;6192910;22;20028;-86
2022/02/06 09:55:05;;;;;;;1.17;0.80;;;;;;;;;;6190610;22;20032;-85
2022/02/06 09:57:40;;;;;;;4.63;1.15;;;;;;;;;;6201759;22;20018;-86
2022/02/06 10:00:07;;;;;;;4.40;1.10;;;;;;;;;;6208161;23;20016;-86
2022/02/06 10:02:35;;;;;;;2.72;0.98;;;;;;;;;;6230270;22;20026;-86
2022/02/06 10:05:02;;;;;;;2.28;0.82;;;;;;;;;;6199187;22;20140;-86
2022/02/06 10:07:37;;;;;;;1.38;1.00;;;;;;;;;;6204155;22;20024;-86
2022/02/06 10:10:08;;;;;;;3.70;2.17;;;;;;;;;;6199352;22;20020;-86
2022/02/06 10:12:39;;;;;;;1.90;0.85;;;;;;;;;;6195011;23;20027;-86
2022/02/06 10:15:06;;;;;;;1.95;1.15;;;;;;;;;;6193670;23;20039;-86
2022/02/06 10:17:34;;;;;;;1.30;0.90;;;;;;;;;;6191651;22;20016;-86
2022/02/06 10:20:01;;;;;;;2.08;0.90;;;;;;;;;;6192894;22;20016;-86
2022/02/06 10:22:40;;;;;;;3.90;1.20;;;;;;;;;;6193136;22;20024;-86
2022/02/06 10:25:08;;;;;;;1.85;1.10;;;;;;;;;;6195407;23;20046;-86
2022/02/06 10:27:59;;;;;;;1.00;0.80;;;;;;;;;;6190769;23;20031;-86
2022/02/06 10:30:37;;;;;;;3.65;1.02;;;;;;;;;;6216969;22;20080;-86
2022/02/06 10:33:05;;;;;;;2.35;0.80;;;;;;;;;;6244050;22;20282;-86
2022/02/06 10:35:40;;;;;;;2.47;0.80;;;;;;;;;;6190191;22;20031;-86
2022/02/06 10:38:16;;;;;;;1.70;0.98;;;;;;;;;;6192748;23;20027;-86
2022/02/06 10:40:43;;;;;;;1.05;0.60;;;;;;;;;;6190046;22;20031;-86
2022/02/06 10:43:10;;;;;;;2.10;0.93;;;;;;;;;;6190860;22;20084;-86
2022/02/06 10:45:37;;;;;;;1.58;0.60;;;;;;;;;;6190060;23;20376;-86
2022/02/06 10:48:04;;;;;;;1.95;0.60;;;;;;;;;;6215079;22;20054;-86
2022/02/06 10:50:33;;;;;;;2.10;0.82;;;;;;;;;;6189868;22;20096;-86
2022/02/06 10:53:13;;;;;;;1.10;0.70;;;;;;;;;;6195540;22;20013;-86
2022/02/06 10:56:00;;;;;;;0.93;0.60;;;;;;;;;;6217354;23;20016;-85
2022/02/06 10:58:28;;;;;;;2.28;0.70;;;;;;;;;;6190281;22;20016;-86
2022/02/06 11:00:54;;;;;;;0.47;0.40;;;;;;;;;;6189753;22;20334;-86
2022/02/06 11:03:32;;;;;;;1.13;0.75;;;;;;;;;;6192206;22;20028;-85
2022/02/06 11:06:07;;;;;;;1.80;0.60;;;;;;;;;;6193330;22;20035;-85
2022/02/06 11:08:35;;;;;;;1.20;0.97;;;;;;;;;;6192418;22;20466;-85
2022/02/06 11:11:05;;;;;;;1.10;0.70;;;;;;;;;;6190293;22;20020;-86
2022/02/06 11:13:32;;;;;;;1.60;0.60;;;;;;;;;;6188262;22;20097;-86
2022/02/06 11:16:01;;;;;;;0.80;0.60;;;;;;;;;;6188655;22;20027;-86
2022/02/06 11:18:39;;;;;;;0.88;0.60;;;;;;;;;;6210600;22;20393;-86
2022/02/06 11:21:07;;;;;;;0.77;0.63;;;;;;;;;;6187802;23;20059;-86
2022/02/06 11:23:39;;;;;;;1.38;0.60;;;;;;;;;;6187007;22;20020;-86
2022/02/06 11:26:20;;;;;;;1.30;0.52;;;;;;;;;;6216684;23;20239;-86
2022/02/06 11:28:46;;;;;;;0.22;0.22;;;;;;;;;;6196259;22;20354;-86
2022/02/06 11:31:14;;;;;;;1.23;0.63;;;;;;;;;;6216307;22;20596;-86
2022/02/06 11:33:40;;;;;;;0.57;0.45;;;;;;;;;;6191688;22;20047;-86
2022/02/06 11:36:14;;;;;;;1.20;0.60;;;;;;;;;;6195157;23;20020;-85
2022/02/06 11:45:04;;;;;;;1.67;1.00;;;;;;;;;;6218656;22;20023;-86
2022/02/06 11:47:33;;;;;;;0.60;0.40;;;;;;;;;;6216259;22;20032;-86
2022/02/06 11:50:06;;;;;;;3.75;0.88;;;;;;;;;;6189186;22;20008;-85
2022/02/06 11:52:58;;;;;;;1.75;0.80;;;;;;;;;;6191467;22;20020;-86
2022/02/06 11:55:48;;;;;;;0.65;0.52;;;;;;;;;;6189341;22;20573;-86
2022/02/06 11:58:40;;;;;;;2.72;0.70;;;;;;;;;;6189916;22;20020;-86
2022/02/06 12:01:05;;;;;;;2.28;0.70;;;;;;;;;;6183725;23;20023;-86
2022/02/06 12:03:50;;;;;;;0.60;0.52;;;;;;;;;;6213356;22;20028;-86
2022/02/06 12:06:18;;;;;;;0.57;0.55;;;;;;;;;;6187923;22;20465;-86
2022/02/06 12:08:45;;;;;;;1.30;0.50;;;;;;;;;;6189669;22;20024;-86
2022/02/06 12:11:13;;;;;;;0.95;0.50;;;;;;;;;;6188513;22;20020;-86
2022/02/06 12:13:39;;;;;;;0.90;0.43;;;;;;;;;;6187684;23;20050;-86
2022/02/06 12:16:07;;;;;;;0.68;0.50;;;;;;;;;;6187286;23;20335;-86
2022/02/06 12:18:38;;;;;;;1.35;0.63;;;;;;;;;;6187495;22;20525;-86
2022/02/06 12:21:23;;;;;;;0.75;0.40;;;;;;;;;;6188105;22;20136;-86
2022/02/06 12:23:58;;;;;;;1.25;0.88;;;;;;;;;;6187226;22;20078;-86
2022/02/06 12:26:27;;;;;;;2.13;0.60;;;;;;;;;;6189086;22;20013;-86
2022/02/06 12:29:09;;;;;;;0.40;0.40;;;;;;;;;;6216779;22;20020;-86
2022/02/06 12:31:57;;;;;;;0.45;0.38;;;;;;;;;;6216932;22;20018;-86
2022/02/06 12:37:06;;;;;;;1.00;0.70;;;;;;;;;;6216727;22;20110;-86
2022/02/06 12:37:30;;;;;;;1.60;0.95;;;;;;;;;;6219844;22;20703;-86
2022/02/06 12:39:57;;;;;;;2.22;0.50;;;;;;;;;;6187548;22;20067;-86
2022/02/06 12:42:27;;;;;;;1.27;0.77;;;;;;;;;;6212869;22;20027;-86
2022/02/06 12:44:56;;;;;;;1.50;0.80;;;;;;;;;;6215291;22;20091;-86
2022/02/06 12:47:22;;;;;;;2.80;0.63;;;;;;;;;;6189762;22;20020;-86
2022/02/06 12:49:48;;;;;;;0.90;0.80;;;;;;;;;;6214266;22;20109;-86
2022/02/06 12:52:15;;;;;;;0.82;0.40;;;;;;;;;;6191810;22;20028;-86
2022/02/06 12:54:40;;;;;;;4.63;1.38;;;;;;;;;;6190106;22;20095;-86
2022/02/06 12:57:08;;;;;;;1.17;0.60;;;;;;;;;;6189988;23;20461;-85
2022/02/06 12:59:34;;;;;;;0.77;0.60;;;;;;;;;;6190937;22;20023;-86
2022/02/06 13:02:00;;;;;;;1.33;0.60;;;;;;;;;;6190407;22;20016;-86
2022/02/06 13:04:30;;;;;;;0.50;0.43;;;;;;;;;;6215171;22;20016;-86
2022/02/06 13:07:02;;;;;;;2.97;0.60;;;;;;;;;;6192740;22;20019;-86
2022/02/06 13:09:37;;;;;;;4.38;2.03;;;;;;;;;;6193282;22;20453;-86
2022/02/06 13:12:18;;;;;;;1.33;0.97;;;;;;;;;;6193401;22;20031;-86
2022/02/06 13:15:00;;;;;;;2.03;0.40;;;;;;;;;;6195337;22;20272;-86
2022/02/06 13:20:27;;;;;;;1.08;0.63;;;;;;;;;;6218060;22;20020;-87
2022/02/06 13:23:06;;;;;;;0.68;0.50;;;;;;;;;;6197821;22;20107;-86
2022/02/06 13:26:00;;;;;;;0.45;0.45;;;;;;;;;;6195574;22;20087;-86
2022/02/06 13:28:42;;;;;;;0.28;0.28;;;;;;;;;;6198717;22;20024;-86
2022/02/06 13:31:35;;;;;;;1.05;0.40;;;;;;;;;;6223431;22;20305;-86
2022/02/06 13:34:17;;;;;;;3.05;1.00;;;;;;;;;;6203131;22;20020;-85
2022/02/06 13:36:53;;;;;;;0.65;0.40;;;;;;;;;;6225427;22;20092;-86
2022/02/06 13:39:42;;;;;;;0.50;0.40;;;;;;;;;;6192054;22;20016;-86
2022/02/06 13:42:14;;;;;;;0.82;0.40;;;;;;;;;;6197180;23;20020;-86
2022/02/06 13:44:40;;;;;;;1.20;0.50;;;;;;;;;;6193780;23;20012;-86
2022/02/06 13:47:07;;;;;;;0.68;0.35;;;;;;;;;;6190046;23;20024;-86
2022/02/06 13:49:48;;;;;;;0.70;0.50;;;;;;;;;;6218099;22;20012;-86
2022/02/06 13:52:14;;;;;;;1.20;0.40;;;;;;;;;;6193155;22;20077;-86
2022/02/06 13:54:46;;;;;;;0.40;0.30;;;;;;;;;;6191886;23;20024;-86
2022/02/06 13:57:12;;;;;;;0.40;0.40;;;;;;;;;;6215449;22;20112;-86
2022/02/06 13:59:39;;;;;;;1.23;0.60;;;;;;;;;;6190253;23;20023;-86
2022/02/06 14:02:09;;;;;;;1.88;0.40;;;;;;;;;;6189033;22;20493;-86
2022/02/06 14:04:38;;;;;;;0.60;0.40;;;;;;;;;;6189679;23;20038;-86
2022/02/06 14:07:19;;;;;;;0.85;0.45;;;;;;;;;;6190778;22;20028;-86
2022/02/06 14:10:00;;;;;;;0.65;0.50;;;;;;;;;;6215916;22;20020;-86
2022/02/06 14:12:26;;;;;;;1.00;0.40;;;;;;;;;;6194069;22;20082;-86
2022/02/06 14:14:54;;;;;;;0.70;0.40;;;;;;;;;;6189668;22;20392;-86
2022/02/06 14:17:35;;;;;;;0.30;0.20;;;;;;;;;;6189274;22;20416;-86
2022/02/06 14:20:09;;;;;;;1.27;0.65;;;;;;;;;;6189556;22;20335;-86
2022/02/06 14:22:37;;;;;;;0.55;0.40;;;;;;;;;;6213841;22;20070;-86
2022/02/06 14:25:09;;;;;;;0.73;0.40;;;;;;;;;;6189547;22;20011;-86
2022/02/06 14:27:43;;;;;;;2.58;0.60;;;;;;;;;;6189112;22;20022;-86
2022/02/06 14:30:12;;;;;;;2.67;0.50;;;;;;;;;;6188023;23;20043;-86
2022/02/06 14:32:56;;;;;;;0.47;0.40;;;;;;;;;;6188565;23;20012;-86
2022/02/06 14:35:24;;;;;;;1.10;0.60;;;;;;;;;;6187851;22;20020;-86
2022/02/06 14:37:56;;;;;;;1.42;0.95;;;;;;;;;;6189464;22;20051;-86
2022/02/06 14:40:50;;;;;;;1.10;0.60;;;;;;;;;;6189721;22;20823;-86
2022/02/06 14:43:16;;;;;;;1.20;0.43;;;;;;;;;;6193079;22;20020;-86
2022/02/06 14:45:50;;;;;;;0.57;0.47;;;;;;;;;;6188545;22;20016;-86
2022/02/06 14:48:17;;;;;;;1.30;0.40;;;;;;;;;;6187054;22;20099;-86
2022/02/06 14:50:46;;;;;;;0.68;0.40;;;;;;;;;;6186646;22;20078;-86
2022/02/06 14:53:13;;;;;;;1.08;0.70;;;;;;;;;;6214270;22;20024;-86
2022/02/06 14:55:39;;;;;;;1.00;0.43;;;;;;;;;;6191360;23;20039;-86
2022/02/06 14:58:05;;;;;;;0.70;0.70;;;;;;;;;;6189774;22;20024;-86
2022/02/06 15:00:31;;;;;;;0.60;0.50;;;;;;;;;;6190320;22;20031;-86
2022/02/06 15:02:56;;;;;;;1.88;0.50;;;;;;;;;;6190058;22;20020;-86
2022/02/06 15:05:22;;;;;;;1.45;0.30;;;;;;;;;;6242304;22;20024;-86
2022/02/06 15:07:48;;;;;;;0.75;0.50;;;;;;;;;;6213026;22;20020;-85
2022/02/06 15:10:13;;;;;;;1.38;0.70;;;;;;;;;;6191376;22;20415;-86
2022/02/06 15:12:39;;;;;;;0.30;0.30;;;;;;;;;;6189435;23;20058;-86
2022/02/06 15:15:06;;;;;;;2.08;0.40;;;;;;;;;;6190264;22;20032;-86
2022/02/06 15:17:33;;;;;;;1.33;0.15;;;;;;;;;;6188839;22;20142;-86
2022/02/06 15:19:59;;;;;;;1.17;0.60;;;;;;;;;;6188448;22;20072;-86
2022/02/06 15:22:25;;;;;;;1.42;0.45;;;;;;;;;;6186816;22;20095;-86
2022/02/06 15:24:51;;;;;;;2.97;0.47;;;;;;;;;;6186405;22;20027;-86
2022/02/06 15:27:16;;;;;;;0.28;0.20;;;;;;;;;;6211392;22;20055;-86
2022/02/06 15:29:42;;;;;;;0.45;0.30;;;;;;;;;;6185832;22;20016;-86
2022/02/06 15:32:08;;;;;;;0.63;0.60;;;;;;;;;;6213107;23;20020;-86
2022/02/06 15:34:34;;;;;;;0.35;0.30;;;;;;;;;;6190493;22;20020;-86
2022/02/06 15:37:03;;;;;;;0.50;0.30;;;;;;;;;;6189940;22;20050;-87
2022/02/06 15:39:36;;;;;;;0.30;0.30;;;;;;;;;;6189661;22;20098;-86
2022/02/06 15:42:12;;;;;;;1.58;0.30;;;;;;;;;;6188614;22;20020;-86
2022/02/06 15:44:38;;;;;;;0.82;0.25;;;;;;;;;;6188748;23;20075;-87
2022/02/06 15:47:04;;;;;;;0.40;0.30;;;;;;;;;;6210175;22;20082;-87
2022/02/06 15:49:29;;;;;;;0.57;0.40;;;;;;;;;;6187021;22;20016;-87
2022/02/06 15:51:55;;;;;;;0.43;0.20;;;;;;;;;;6186133;22;20017;-87
2022/02/06 15:54:21;;;;;;;0.40;0.40;;;;;;;;;;6183863;22;20020;-89
2022/02/06 15:56:48;;;;;;;0.65;0.20;;;;;;;;;;6184355;22;20591;-88
2022/02/06 15:59:14;;;;;;;0.43;0.20;;;;;;;;;;6184043;22;20028;-89
2022/02/06 16:01:39;;;;;;;0.43;0.32;;;;;;;;;;6183348;23;20078;-90
2022/02/06 16:04:06;;;;;;;0.28;0.20;;;;;;;;;;6184261;22;20016;-89
2022/02/06 16:06:33;;;;;;;0.25;0.20;;;;;;;;;;6185171;22;20024;-89
2022/02/06 16:09:01;;;;;;;0.20;0.20;;;;;;;;;;6183991;22;20766;-89
2022/02/06 16:11:27;;;;;;;0.38;0.20;;;;;;;;;;6183640;22;20393;-88
2022/02/06 16:13:52;;;;;;;0.40;0.20;;;;;;;;;;6184053;22;20066;-89
2022/02/06 16:16:18;;;;;;;1.45;0.32;;;;;;;;;;6182968;22;20054;-88
2022/02/06 16:18:44;;;;;;;2.83;0.20;;;;;;;;;;6180703;22;20016;-88
2022/02/06 16:21:09;;;;;;;0.30;0.30;;;;;;;;;;6182041;23;20028;-88
2022/02/06 16:23:35;;;;;;;0.43;0.30;;;;;;;;;;6183951;22;20454;-87
2022/02/06 16:26:01;;;;;;;0.38;0.30;;;;;;;;;;6183922;22;20028;-86
2022/02/06 16:28:29;;;;;;;0.45;0.17;;;;;;;;;;6186334;22;20020;-87
2022/02/06 16:30:56;;;;;;;0.70;0.43;;;;;;;;;;6210354;22;20035;-87
2022/02/06 16:33:21;;;;;;;0.47;0.40;;;;;;;;;;6186362;22;20043;-87
2022/02/06 16:35:47;;;;;;;0.50;0.20;;;;;;;;;;6185879;22;20020;-87
2022/02/06 16:38:13;;;;;;;0.28;0.20;;;;;;;;;;6187645;22;20027;-86
2022/02/06 16:40:39;;;;;;;0.40;0.20;;;;;;;;;;6187797;23;20016;-87
2022/02/06 16:43:05;;;;;;;0.38;0.17;;;;;;;;;;6184749;22;20019;-87
2022/02/06 16:45:30;;;;;;;0.55;0.47;;;;;;;;;;6212367;22;20028;-87
2022/02/06 16:47:56;;;;;;;0.38;0.20;;;;;;;;;;6212211;22;20028;-87